Time;durP1;ratioP1;P1;durP2;ratioP2;P2;SDS_P1;SDS_P2;PMS_P1;PMS_P2;Temp;Humidity;BMP_temperature;BMP_pressure;BME280_temperature;BME280_humidity;BME280_pressure;Samples;Min_cycle;Max_cycle;Signal;HPM_P1;HPM_P2
2024/04/07 00:01:33;;;;;;;2.20;2.00;;;22.00;99.90;;;;;;5051751;28;20456;-71
2024/04/07 00:03:59;;;;;;;3.23;2.40;;;21.90;99.50;;;;;;5054765;28;20848;-72
2024/04/07 00:06:25;;;;;;;2.77;2.40;;;21.70;99.90;;;;;;5054317;28;20475;-70
2024/04/07 00:08:51;;;;;;;3.85;2.20;;;21.80;99.90;;;;;;5055131;28;20208;-71
2024/04/07 00:11:18;;;;;;;2.07;1.77;;;21.70;99.90;;;;;;5048031;28;20198;-70
2024/04/07 00:13:46;;;;;;;3.50;2.50;;;21.80;99.90;;;;;;5056050;28;21019;-72
2024/04/07 00:16:12;;;;;;;2.13;1.93;;;22.00;99.90;;;;;;5054784;28;21066;-72
2024/04/07 00:18:38;;;;;;;2.23;1.90;;;21.70;99.90;;;;;;5055592;28;20459;-71
2024/04/07 00:21:06;;;;;;;2.53;1.90;;;21.70;99.90;;;;;;5055353;28;20526;-70
2024/04/07 00:23:32;;;;;;;3.40;2.30;;;21.90;99.90;;;;;;5056096;28;20209;-70
2024/04/07 00:25:59;;;;;;;3.00;2.50;;;21.70;99.90;;;;;;5055379;28;20471;-70
2024/04/07 00:28:25;;;;;;;2.30;2.10;;;21.70;99.90;;;;;;5054104;28;20484;-71
2024/04/07 00:30:53;;;;;;;2.58;2.38;;;21.60;99.90;;;;;;5054705;28;20439;-72
2024/04/07 00:33:19;;;;;;;2.60;2.10;;;21.70;99.90;;;;;;5053271;28;20202;-71
2024/04/07 00:35:55;;;;;;;5.00;1.90;;;21.70;99.90;;;;;;5055642;28;20890;-71
2024/04/07 00:38:20;;;;;;;2.72;2.00;;;21.70;99.90;;;;;;5058050;28;20212;-70
2024/04/07 00:40:48;;;;;;;3.00;2.37;;;21.70;99.90;;;;;;5054701;28;20197;-72
2024/04/07 00:43:14;;;;;;;2.13;1.70;;;21.50;99.90;;;;;;5053318;28;20353;-71
2024/04/07 00:45:41;;;;;;;1.60;1.50;;;21.60;99.90;;;;;;5055049;28;20480;-71
2024/04/07 00:48:09;;;;;;;2.65;1.92;;;21.50;99.90;;;;;;5054592;28;20205;-71
2024/04/07 00:50:37;;;;;;;3.40;2.33;;;21.40;99.90;;;;;;5052567;28;20240;-72
2024/04/07 00:53:03;;;;;;;1.98;1.77;;;21.50;99.90;;;;;;5054493;28;20452;-71
2024/04/07 00:55:30;;;;;;;2.20;2.00;;;21.40;99.90;;;;;;5053112;28;20578;-72
2024/04/07 00:57:56;;;;;;;1.63;1.50;;;21.60;99.90;;;;;;5052189;28;20480;-71
2024/04/07 01:00:27;;;;;;;2.00;1.83;;;21.40;99.90;;;;;;5055511;28;20193;-72
2024/04/07 01:02:53;;;;;;;2.20;2.00;;;21.40;99.90;;;;;;5053618;28;20548;-70
2024/04/07 01:05:21;;;;;;;2.03;1.85;;;21.50;99.90;;;;;;5052450;28;20198;-71
2024/04/07 01:07:48;;;;;;;3.15;2.00;;;21.60;99.90;;;;;;5053849;28;20190;-72
2024/04/07 01:10:14;;;;;;;1.80;1.70;;;21.60;99.90;;;;;;5052182;28;20288;-69
2024/04/07 01:12:50;;;;;;;2.65;2.42;;;21.50;99.90;;;;;;5056105;28;20469;-70
2024/04/07 01:15:17;;;;;;;2.80;1.98;;;21.50;99.90;;;;;;5054005;28;20193;-71
2024/04/07 01:17:43;;;;;;;2.38;1.90;;;21.50;99.90;;;;;;5055846;28;20197;-70
2024/04/07 01:20:13;;;;;;;1.97;1.77;;;21.50;99.90;;;;;;5054192;28;20853;-71
2024/04/07 01:22:41;;;;;;;2.70;2.50;;;21.60;99.90;;;;;;5049883;28;20698;-72
2024/04/07 01:25:09;;;;;;;1.70;1.50;;;21.30;99.90;;;;;;5052262;28;20198;-70
2024/04/07 01:27:35;;;;;;;2.40;2.20;;;21.30;99.90;;;;;;5050141;28;20232;-71
2024/04/07 01:30:02;;;;;;;2.30;2.10;;;21.40;99.90;;;;;;5056377;28;20633;-71
2024/04/07 01:32:28;;;;;;;2.53;2.28;;;21.40;99.90;;;;;;5051432;28;20460;-70
2024/04/07 01:34:55;;;;;;;4.27;2.20;;;21.40;99.90;;;;;;5054885;28;20237;-70
2024/04/07 01:37:21;;;;;;;2.80;2.45;;;21.40;99.90;;;;;;5053553;28;20670;-71
2024/04/07 01:39:47;;;;;;;2.70;2.50;;;21.30;99.90;;;;;;5052463;28;20194;-71
2024/04/07 01:42:14;;;;;;;1.75;1.63;;;21.40;99.90;;;;;;5057080;28;20214;-71
2024/04/07 01:44:41;;;;;;;2.03;1.70;;;21.30;99.90;;;;;;5057703;28;20704;-71
2024/04/07 01:47:07;;;;;;;2.03;1.70;;;21.40;99.90;;;;;;5055768;28;20265;-70
2024/04/07 01:49:33;;;;;;;2.10;1.80;;;21.20;99.90;;;;;;5057880;28;20190;-70
2024/04/07 01:51:59;;;;;;;2.25;1.50;;;21.40;99.90;;;;;;5056325;28;21198;-70
2024/04/07 01:54:26;;;;;;;2.50;1.90;;;21.20;99.90;;;;;;5057361;28;20221;-71
2024/04/07 01:56:51;;;;;;;2.10;1.90;;;21.20;99.90;;;;;;5058196;28;20201;-70
2024/04/07 01:59:19;;;;;;;2.23;1.73;;;21.40;99.90;;;;;;5056803;28;20645;-70
2024/04/07 02:01:45;;;;;;;2.20;1.60;;;21.20;99.90;;;;;;5055508;28;20333;-71
2024/04/07 02:04:12;;;;;;;2.37;1.80;;;21.30;99.90;;;;;;5050670;28;20221;-71
2024/04/07 02:06:37;;;;;;;2.92;2.00;;;21.20;99.90;;;;;;5054918;28;20567;-69
2024/04/07 02:09:06;;;;;;;1.83;1.70;;;21.30;99.90;;;;;;5054665;28;20210;-70
2024/04/07 02:11:32;;;;;;;2.10;1.90;;;21.30;99.90;;;;;;5057680;28;20197;-71
2024/04/07 02:13:58;;;;;;;1.80;1.60;;;21.20;99.90;;;;;;5058504;28;20193;-71
2024/04/07 02:16:26;;;;;;;2.00;1.63;;;21.30;99.90;;;;;;5055688;28;20454;-71
2024/04/07 02:18:53;;;;;;;1.90;1.80;;;21.20;99.90;;;;;;5057614;28;20618;-70
2024/04/07 02:21:19;;;;;;;2.35;2.15;;;21.10;99.90;;;;;;5056749;28;20206;-70
2024/04/07 02:23:45;;;;;;;2.00;1.77;;;21.20;99.90;;;;;;5058327;28;20196;-69
2024/04/07 02:26:12;;;;;;;3.70;2.15;;;21.10;99.90;;;;;;5054201;28;20224;-70
2024/04/07 02:28:38;;;;;;;2.42;1.90;;;21.20;99.90;;;;;;5055918;28;20197;-70
2024/04/07 02:31:05;;;;;;;2.55;1.83;;;21.30;99.90;;;;;;5056430;28;20232;-70
2024/04/07 02:33:33;;;;;;;1.90;1.70;;;21.20;99.90;;;;;;5056442;28;20225;-71
2024/04/07 02:35:59;;;;;;;2.00;1.80;;;21.10;99.90;;;;;;5054148;28;21145;-71
2024/04/07 02:38:26;;;;;;;2.50;2.30;;;21.10;99.90;;;;;;5056672;28;20193;-71
2024/04/07 02:40:51;;;;;;;1.63;1.40;;;21.30;99.90;;;;;;5057148;28;20229;-70
2024/04/07 02:43:18;;;;;;;2.03;1.67;;;21.10;99.90;;;;;;5055962;28;20265;-71
2024/04/07 02:48:35;;;;;;;1.80;1.50;;;21.10;99.90;;;;;;5001169;28;20210;-71
2024/04/07 02:51:02;;;;;;;1.70;1.40;;;21.00;99.90;;;;;;5053353;28;20651;-71
2024/04/07 02:53:29;;;;;;;1.65;1.48;;;21.00;99.90;;;;;;5058989;28;20209;-71
2024/04/07 02:55:56;;;;;;;1.95;1.63;;;21.00;99.90;;;;;;5057327;28;20194;-71
2024/04/07 02:58:22;;;;;;;1.88;1.60;;;21.00;99.90;;;;;;5058347;28;20207;-70
2024/04/07 03:00:48;;;;;;;1.70;1.60;;;21.10;99.90;;;;;;5060856;28;21070;-70
2024/04/07 03:03:14;;;;;;;2.10;1.50;;;21.00;99.90;;;;;;5058366;27;21304;-70
2024/04/07 03:05:42;;;;;;;2.03;1.70;;;21.10;99.90;;;;;;5056959;28;20232;-70
2024/04/07 03:08:08;;;;;;;2.13;1.90;;;21.00;99.90;;;;;;5059461;28;20221;-69
2024/04/07 03:10:34;;;;;;;1.60;1.33;;;21.00;99.90;;;;;;5057329;28;20201;-70
2024/04/07 03:13:00;;;;;;;2.20;1.90;;;21.20;99.90;;;;;;5060134;28;20216;-70
2024/04/07 03:15:27;;;;;;;1.97;1.87;;;21.10;99.90;;;;;;5058805;28;20998;-70
2024/04/07 03:17:52;;;;;;;1.90;1.50;;;21.30;99.90;;;;;;5059535;28;20198;-71
2024/04/07 03:20:19;;;;;;;2.13;1.93;;;21.10;99.90;;;;;;5056916;28;20201;-71
2024/04/07 03:22:46;;;;;;;2.05;1.85;;;21.10;99.90;;;;;;5056986;28;20826;-71
2024/04/07 03:25:13;;;;;;;1.92;1.67;;;21.20;99.90;;;;;;5056838;28;20202;-71
2024/04/07 03:27:39;;;;;;;2.22;1.52;;;20.90;99.90;;;;;;5055312;28;20324;-69
2024/04/07 03:30:07;;;;;;;1.83;1.63;;;20.90;99.90;;;;;;5056401;28;20198;-70
2024/04/07 03:32:32;;;;;;;2.25;1.90;;;21.00;99.90;;;;;;5056289;28;20463;-69
2024/04/07 03:34:59;;;;;;;2.27;2.00;;;21.10;99.90;;;;;;5058639;28;20674;-71
2024/04/07 03:37:26;;;;;;;2.10;1.90;;;20.90;99.90;;;;;;5053758;28;20865;-70
2024/04/07 03:39:54;;;;;;;1.95;1.65;;;20.90;99.90;;;;;;5058469;28;20677;-70
2024/04/07 03:42:19;;;;;;;2.35;1.67;;;21.00;99.90;;;;;;5057323;28;20200;-71
2024/04/07 03:44:46;;;;;;;1.80;1.70;;;21.00;99.90;;;;;;5055570;28;20686;-69
2024/04/07 03:47:13;;;;;;;1.50;1.40;;;20.90;99.90;;;;;;5056762;28;21108;-70
2024/04/07 03:49:39;;;;;;;1.75;1.63;;;21.00;99.90;;;;;;5057515;28;20213;-71
2024/04/07 03:52:05;;;;;;;1.90;1.60;;;20.90;99.90;;;;;;5056286;28;20202;-72
2024/04/07 03:54:32;;;;;;;1.60;1.50;;;20.90;99.90;;;;;;5057569;28;20858;-70
2024/04/07 03:56:59;;;;;;;1.58;1.48;;;20.90;99.90;;;;;;5057839;28;20455;-70
2024/04/07 03:59:28;;;;;;;2.25;1.75;;;21.20;99.90;;;;;;5058095;28;20190;-69
2024/04/07 04:01:54;;;;;;;2.30;1.88;;;21.00;99.90;;;;;;5057523;28;20208;-71
2024/04/07 04:04:21;;;;;;;2.00;1.80;;;20.90;99.90;;;;;;5054792;28;20194;-71
2024/04/07 04:06:47;;;;;;;2.20;2.00;;;20.70;99.90;;;;;;5057642;28;20810;-70
2024/04/07 04:09:16;;;;;;;2.40;1.88;;;20.80;99.90;;;;;;5058620;28;20189;-70
2024/04/07 04:11:42;;;;;;;2.00;1.77;;;20.90;99.90;;;;;;5051288;28;20206;-71
2024/04/07 04:14:10;;;;;;;1.73;1.40;;;20.90;99.90;;;;;;5057460;28;20232;-70
2024/04/07 04:16:36;;;;;;;2.05;1.85;;;20.80;99.90;;;;;;5057381;28;20198;-71
2024/04/07 04:19:03;;;;;;;2.07;1.90;;;20.90;99.90;;;;;;5056613;28;21341;-72
2024/04/07 04:21:29;;;;;;;2.00;1.70;;;21.00;99.90;;;;;;5052616;28;20335;-71
2024/04/07 04:23:55;;;;;;;1.80;1.47;;;20.90;99.90;;;;;;5051117;28;20194;-70
2024/04/07 04:26:21;;;;;;;2.33;1.98;;;20.90;99.90;;;;;;5045039;28;20201;-72
2024/04/07 04:28:48;;;;;;;1.55;1.45;;;20.80;99.90;;;;;;5048055;28;20254;-72
2024/04/07 04:31:15;;;;;;;1.65;1.55;;;20.80;99.90;;;;;;5050234;28;20212;-70
2024/04/07 04:33:42;;;;;;;1.55;1.45;;;20.80;99.90;;;;;;5049242;28;20208;-71
2024/04/07 04:36:14;;;;;;;2.00;1.77;;;20.70;99.90;;;;;;5048469;28;21176;-70
2024/04/07 04:38:41;;;;;;;1.73;1.63;;;20.70;99.90;;;;;;5048960;28;20204;-71
2024/04/07 04:41:07;;;;;;;1.80;1.70;;;20.90;99.90;;;;;;5050844;28;20202;-70
2024/04/07 04:43:34;;;;;;;2.30;1.37;;;20.90;99.90;;;;;;5049299;28;20819;-71
2024/04/07 04:46:03;;;;;;;2.00;1.60;;;20.90;99.90;;;;;;5045950;28;20452;-71
2024/04/07 04:48:34;;;;;;;1.35;1.25;;;20.90;99.90;;;;;;5046330;28;20213;-71
2024/04/07 04:51:01;;;;;;;1.73;1.63;;;20.70;99.90;;;;;;5048390;28;20204;-71
2024/04/07 04:53:28;;;;;;;1.73;1.40;;;20.90;99.90;;;;;;5048616;28;20206;-71
2024/04/07 04:55:58;;;;;;;1.50;1.40;;;20.90;99.90;;;;;;5045486;28;20201;-70
2024/04/07 04:58:24;;;;;;;1.60;1.50;;;20.90;99.90;;;;;;5047094;28;20306;-70
2024/04/07 05:00:50;;;;;;;1.67;1.35;;;20.90;99.90;;;;;;5048781;28;20206;-70
2024/04/07 05:03:17;;;;;;;2.07;1.77;;;20.90;99.90;;;;;;5051106;28;21159;-70
2024/04/07 05:05:44;;;;;;;1.70;1.60;;;20.70;99.90;;;;;;5048588;28;21449;-71
2024/04/07 05:08:10;;;;;;;1.63;1.35;;;20.80;99.90;;;;;;5045840;28;20218;-72
2024/04/07 05:10:37;;;;;;;1.25;1.15;;;20.80;99.90;;;;;;5061944;28;20310;-71
2024/04/07 05:13:03;;;;;;;2.50;1.73;;;20.90;99.90;;;;;;5065033;28;20284;-72
2024/04/07 05:15:29;;;;;;;1.52;1.42;;;20.60;99.90;;;;;;5065041;28;20225;-73
2024/04/07 05:17:56;;;;;;;1.83;1.63;;;20.60;99.90;;;;;;5067065;28;20193;-72
2024/04/07 05:20:21;;;;;;;1.40;1.30;;;20.90;99.90;;;;;;5066593;28;20198;-73
2024/04/07 05:22:51;;;;;;;2.03;1.83;;;21.00;99.90;;;;;;5065819;28;20197;-76
2024/04/07 05:25:17;;;;;;;1.83;1.65;;;20.90;99.90;;;;;;5064103;28;20609;-72
2024/04/07 05:27:44;;;;;;;2.33;2.00;;;20.80;99.90;;;;;;5058949;28;20221;-70
2024/04/07 05:30:10;;;;;;;6.07;1.55;;;20.70;99.90;;;;;;5066337;28;20444;-70
2024/04/07 05:32:37;;;;;;;1.83;1.52;;;20.70;99.90;;;;;;5065625;28;20219;-72
2024/04/07 05:35:04;;;;;;;1.60;1.20;;;20.70;99.90;;;;;;5065306;28;20587;-70
2024/04/07 05:37:31;;;;;;;1.77;1.40;;;20.80;99.90;;;;;;5063840;28;20190;-70
2024/04/07 05:39:58;;;;;;;1.83;1.45;;;20.80;99.90;;;;;;5062347;28;21219;-70
2024/04/07 05:42:27;;;;;;;2.13;1.80;;;20.70;99.90;;;;;;5061170;28;20318;-73
2024/04/07 05:44:53;;;;;;;1.30;1.15;;;20.70;99.90;;;;;;5061714;28;20618;-70
2024/04/07 05:47:20;;;;;;;1.55;1.45;;;20.60;99.90;;;;;;5059838;28;20262;-70
2024/04/07 05:49:46;;;;;;;2.30;1.95;;;20.90;99.90;;;;;;5054461;28;20205;-71
2024/04/07 05:52:13;;;;;;;1.47;1.37;;;20.80;99.90;;;;;;5062393;28;20759;-69
2024/04/07 05:54:39;;;;;;;1.60;1.40;;;21.30;99.90;;;;;;5062308;28;20209;-71
2024/04/07 05:57:07;;;;;;;2.40;1.52;;;20.80;99.90;;;;;;5059345;28;20196;-70
2024/04/07 05:59:33;;;;;;;1.65;1.55;;;20.70;99.90;;;;;;5062354;28;20190;-69
2024/04/07 06:02:00;;;;;;;1.50;1.20;;;20.70;99.90;;;;;;5064041;28;20194;-69
2024/04/07 06:04:25;;;;;;;3.45;1.90;;;20.70;99.90;;;;;;5063563;28;20207;-70
2024/04/07 06:06:52;;;;;;;1.90;1.47;;;20.80;99.90;;;;;;5063913;28;20221;-71
2024/04/07 06:09:17;;;;;;;1.90;1.60;;;20.70;99.90;;;;;;5064308;28;20223;-71
2024/04/07 06:11:45;;;;;;;1.20;1.00;;;20.70;99.90;;;;;;5063247;28;20190;-70
2024/04/07 06:14:12;;;;;;;3.55;1.90;;;20.80;99.90;;;;;;5060475;28;20194;-73
2024/04/07 06:16:39;;;;;;;1.77;1.30;;;20.80;99.90;;;;;;5062497;28;20209;-72
2024/04/07 06:19:05;;;;;;;2.15;1.95;;;20.70;99.90;;;;;;5061168;28;20233;-72
2024/04/07 06:21:31;;;;;;;2.43;1.73;;;20.60;99.90;;;;;;5061183;28;20982;-72
2024/04/07 06:23:57;;;;;;;1.38;1.27;;;20.80;99.90;;;;;;5066879;28;20278;-71
2024/04/07 06:26:24;;;;;;;1.93;1.50;;;20.70;99.90;;;;;;5059918;28;20304;-73
2024/04/07 06:28:50;;;;;;;1.75;1.58;;;20.60;99.90;;;;;;5066538;28;20486;-71
2024/04/07 06:31:18;;;;;;;1.47;1.30;;;20.70;99.90;;;;;;5067798;28;20197;-70
2024/04/07 06:33:44;;;;;;;1.90;1.60;;;20.70;99.90;;;;;;5063213;28;20701;-70
2024/04/07 06:36:11;;;;;;;2.20;1.30;;;20.50;99.90;;;;;;5067155;28;20204;-70
2024/04/07 06:38:36;;;;;;;2.10;1.33;;;20.60;99.90;;;;;;5063472;28;20204;-71
2024/04/07 06:41:04;;;;;;;1.73;1.47;;;20.70;99.90;;;;;;5065734;28;20198;-74
2024/04/07 06:43:29;;;;;;;2.00;1.52;;;20.50;99.90;;;;;;5066010;28;20201;-72
2024/04/07 06:45:58;;;;;;;1.50;1.40;;;20.70;99.90;;;;;;5066082;28;20197;-71
2024/04/07 06:48:25;;;;;;;1.80;1.40;;;20.90;99.90;;;;;;5055683;28;20209;-72
2024/04/07 06:50:52;;;;;;;6.50;1.58;;;21.00;99.90;;;;;;5061935;28;20209;-72
2024/04/07 06:53:17;;;;;;;1.70;1.45;;;21.00;99.90;;;;;;5057758;28;20809;-72
2024/04/07 06:55:45;;;;;;;3.23;1.90;;;21.30;99.90;;;;;;5063891;28;20193;-71
2024/04/07 06:58:10;;;;;;;3.65;2.13;;;21.10;99.90;;;;;;5062371;28;20199;-71
2024/04/07 07:00:37;;;;;;;2.27;1.50;;;21.20;99.90;;;;;;5066333;28;20552;-72
2024/04/07 07:03:03;;;;;;;1.90;1.37;;;21.20;99.90;;;;;;5064791;28;20194;-71
2024/04/07 07:05:31;;;;;;;2.27;1.50;;;21.20;99.90;;;;;;5061484;28;20977;-71
2024/04/07 07:07:57;;;;;;;3.63;1.50;;;21.40;99.90;;;;;;5066136;28;20480;-71
2024/04/07 07:10:24;;;;;;;2.92;1.40;;;21.30;99.90;;;;;;5060343;28;20451;-71
2024/04/07 07:12:50;;;;;;;2.60;1.67;;;21.30;99.90;;;;;;5065961;28;20228;-71
2024/04/07 07:15:16;;;;;;;3.03;1.40;;;21.40;99.90;;;;;;5064799;28;20452;-71
2024/04/07 07:17:42;;;;;;;2.10;1.90;;;21.40;99.90;;;;;;5064813;28;20224;-71
2024/04/07 07:20:09;;;;;;;3.10;1.47;;;21.50;99.90;;;;;;5063901;28;20444;-71
2024/04/07 07:22:36;;;;;;;2.33;1.83;;;21.40;99.90;;;;;;5064573;28;20201;-71
2024/04/07 07:25:04;;;;;;;2.13;1.40;;;21.60;99.90;;;;;;5063177;28;20450;-72
2024/04/07 07:27:30;;;;;;;2.70;1.50;;;21.60;99.90;;;;;;5061590;28;21012;-73
2024/04/07 07:29:56;;;;;;;3.63;1.70;;;21.50;99.90;;;;;;5063320;28;20462;-72
2024/04/07 07:32:22;;;;;;;2.80;1.30;;;21.50;99.90;;;;;;5064954;28;21911;-72
2024/04/07 07:34:49;;;;;;;4.20;1.50;;;21.50;99.90;;;;;;5063880;28;20467;-72
2024/04/07 07:37:15;;;;;;;2.47;1.43;;;21.70;99.90;;;;;;5061859;28;20198;-73
2024/04/07 07:39:43;;;;;;;2.77;1.40;;;21.50;99.90;;;;;;5058629;28;20450;-71
2024/04/07 07:42:10;;;;;;;7.93;1.40;;;21.60;99.90;;;;;;5061430;28;20462;-71
2024/04/07 07:44:37;;;;;;;2.27;1.60;;;21.70;99.90;;;;;;5065196;28;20463;-73
2024/04/07 07:47:03;;;;;;;2.30;1.50;;;21.60;99.90;;;;;;5063198;28;20471;-73
2024/04/07 07:49:29;;;;;;;4.67;1.70;;;21.60;99.90;;;;;;5062604;28;20629;-73
2024/04/07 07:51:55;;;;;;;4.03;1.47;;;21.60;99.90;;;;;;5060285;28;20934;-72
2024/04/07 07:54:22;;;;;;;1.40;1.10;;;21.80;99.90;;;;;;5065819;28;20461;-72
2024/04/07 07:56:49;;;;;;;2.83;1.70;;;21.80;99.90;;;;;;5064777;28;20205;-72
2024/04/07 07:59:15;;;;;;;3.47;1.23;;;21.70;99.90;;;;;;5065156;28;21440;-73
2024/04/07 08:01:41;;;;;;;3.40;1.73;;;21.70;99.90;;;;;;5064693;28;20454;-72
2024/04/07 08:04:08;;;;;;;2.13;1.60;;;21.70;99.90;;;;;;5066268;28;20454;-72
2024/04/07 08:06:33;;;;;;;3.80;1.73;;;21.70;99.90;;;;;;5066247;28;20198;-73
2024/04/07 08:09:00;;;;;;;1.53;1.30;;;21.70;99.90;;;;;;5064715;28;21219;-73
2024/04/07 08:11:26;;;;;;;2.27;1.50;;;21.70;99.90;;;;;;5061716;28;20208;-72
2024/04/07 08:13:54;;;;;;;2.60;1.20;;;22.00;99.90;;;;;;5063328;28;20898;-72
2024/04/07 08:16:21;;;;;;;2.07;1.20;;;21.70;99.90;;;;;;5062453;28;20204;-73
2024/04/07 08:18:48;;;;;;;5.17;1.57;;;21.90;99.90;;;;;;5059553;28;20447;-73
2024/04/07 08:21:14;;;;;;;2.10;1.33;;;22.00;99.90;;;;;;5055963;28;20497;-72
2024/04/07 08:23:41;;;;;;;3.10;1.33;;;21.80;99.90;;;;;;5062837;28;21432;-73
2024/04/07 08:26:07;;;;;;;2.37;1.57;;;21.90;99.90;;;;;;5060613;28;20452;-72
2024/04/07 08:28:34;;;;;;;6.20;1.80;;;22.10;99.90;;;;;;5063437;28;20487;-72
2024/04/07 08:31:01;;;;;;;2.73;1.10;;;21.90;99.90;;;;;;5063750;28;20454;-73
2024/04/07 08:33:28;;;;;;;2.07;1.40;;;21.90;99.90;;;;;;5062151;28;20964;-73
2024/04/07 08:35:54;;;;;;;4.70;1.70;;;21.90;99.90;;;;;;5064085;28;20964;-73
2024/04/07 08:38:21;;;;;;;3.23;1.37;;;22.00;99.90;;;;;;5063909;28;20926;-72
2024/04/07 08:40:47;;;;;;;2.00;1.80;;;22.00;99.90;;;;;;5066262;28;20460;-72
2024/04/07 08:43:15;;;;;;;2.10;1.33;;;21.80;99.90;;;;;;5065016;28;20467;-73
2024/04/07 08:45:41;;;;;;;2.03;1.40;;;22.10;99.90;;;;;;5063477;28;20448;-73
2024/04/07 08:48:12;;;;;;;3.10;1.23;;;22.10;99.90;;;;;;5066295;28;20491;-73
2024/04/07 08:50:38;;;;;;;3.73;1.50;;;22.10;99.90;;;;;;5066558;28;20455;-72
2024/04/07 08:53:06;;;;;;;1.73;1.27;;;22.20;99.90;;;;;;5068306;28;20444;-72
2024/04/07 08:55:32;;;;;;;4.30;1.80;;;22.10;99.90;;;;;;5069368;28;20451;-72
2024/04/07 08:57:59;;;;;;;1.60;1.20;;;22.00;99.90;;;;;;5065756;28;20443;-73
2024/04/07 09:00:27;;;;;;;1.83;1.20;;;22.30;99.90;;;;;;5067197;28;21136;-72
2024/04/07 09:02:56;;;;;;;2.70;1.40;;;22.30;99.90;;;;;;5064573;28;20455;-72
2024/04/07 09:05:24;;;;;;;1.93;1.40;;;22.40;99.90;;;;;;5063717;28;20457;-72
2024/04/07 09:07:50;;;;;;;1.63;1.50;;;22.40;99.90;;;;;;5064273;28;20479;-73
2024/04/07 09:10:16;;;;;;;1.60;1.23;;;22.40;99.90;;;;;;5063203;28;20456;-73
2024/04/07 09:12:43;;;;;;;3.00;1.20;;;22.40;99.90;;;;;;5065525;28;20519;-72
2024/04/07 09:15:08;;;;;;;1.40;1.13;;;22.50;99.90;;;;;;5065275;28;20202;-73
2024/04/07 09:17:35;;;;;;;1.80;1.40;;;22.50;99.90;;;;;;5065993;28;20447;-72
2024/04/07 09:20:06;;;;;;;2.13;1.63;;;22.40;99.90;;;;;;5065670;28;20194;-73
2024/04/07 09:22:35;;;;;;;2.40;1.23;;;22.50;97.20;;;;;;5062360;28;20444;-72
2024/04/07 09:25:02;;;;;;;1.90;1.60;;;;;;;;;;5062666;28;20463;-73
2024/04/07 09:27:29;;;;;;;2.33;1.20;;;22.60;99.90;;;;;;5061764;28;20571;-73
2024/04/07 09:29:55;;;;;;;3.40;1.50;;;22.90;99.90;;;;;;5064764;28;20463;-73
2024/04/07 09:32:24;;;;;;;1.77;1.20;;;22.80;95.00;;;;;;5064235;28;21164;-74
2024/04/07 09:34:50;;;;;;;1.13;1.00;;;22.80;93.50;;;;;;5065604;28;20586;-73
2024/04/07 09:37:17;;;;;;;1.80;1.50;;;22.80;93.10;;;;;;5065721;28;20455;-73
2024/04/07 09:39:44;;;;;;;1.70;1.33;;;23.00;92.10;;;;;;5064599;28;20459;-72
2024/04/07 09:42:15;;;;;;;2.27;1.73;;;23.00;92.00;;;;;;5067274;28;20466;-73
2024/04/07 09:44:45;;;;;;;1.40;1.20;;;23.00;91.70;;;;;;5067401;28;20444;-72
2024/04/07 09:47:15;;;;;;;3.37;1.47;;;22.90;92.00;;;;;;5062779;28;20550;-73
2024/04/07 09:49:40;;;;;;;2.20;1.30;;;23.10;92.10;;;;;;5065440;28;20947;-72
2024/04/07 09:52:08;;;;;;;1.60;1.20;;;22.90;91.60;;;;;;5066132;28;20448;-72
2024/04/07 09:54:39;;;;;;;2.50;1.40;;;23.00;91.30;;;;;;5065327;28;20201;-72
2024/04/07 09:57:09;;;;;;;2.13;1.23;;;22.90;91.20;;;;;;5063054;28;20476;-73
2024/04/07 09:59:36;;;;;;;3.73;1.47;;;23.00;91.30;;;;;;5062050;28;20452;-72
2024/04/07 10:02:04;;;;;;;2.10;1.30;;;23.00;90.80;;;;;;5063450;28;20558;-72
2024/04/07 10:04:32;;;;;;;1.73;1.23;;;23.10;90.70;;;;;;5065624;28;20928;-72
2024/04/07 10:07:00;;;;;;;1.60;1.20;;;23.10;90.80;;;;;;5064477;28;20448;-72
2024/04/07 10:09:26;;;;;;;1.97;1.30;;;23.20;90.90;;;;;;5064680;28;20488;-72
2024/04/07 10:11:53;;;;;;;2.10;1.30;;;23.10;90.60;;;;;;5064261;28;20451;-72
2024/04/07 10:14:20;;;;;;;1.83;1.30;;;23.00;90.70;;;;;;5066059;28;20459;-72
2024/04/07 10:16:50;;;;;;;1.13;0.90;;;23.00;90.60;;;;;;5065788;28;20808;-72
2024/04/07 10:19:18;;;;;;;1.80;1.40;;;23.30;90.60;;;;;;5063269;28;20497;-72
2024/04/07 10:21:44;;;;;;;1.40;1.20;;;23.00;90.40;;;;;;5066158;28;20730;-72
2024/04/07 10:24:10;;;;;;;3.80;1.53;;;23.20;90.40;;;;;;5066147;28;20981;-72
2024/04/07 10:26:37;;;;;;;1.40;1.10;;;23.10;90.40;;;;;;5065933;28;20452;-72
2024/04/07 10:29:06;;;;;;;2.53;1.33;;;23.20;90.50;;;;;;5065452;28;20316;-72
2024/04/07 10:31:37;;;;;;;1.80;1.40;;;23.10;90.30;;;;;;5063176;28;20477;-73
2024/04/07 10:34:03;;;;;;;1.40;1.10;;;23.00;90.20;;;;;;5063999;28;20489;-72
2024/04/07 10:36:34;;;;;;;1.20;1.00;;;23.20;90.30;;;;;;5063793;28;20596;-72
2024/04/07 10:39:02;;;;;;;1.50;1.20;;;23.20;90.20;;;;;;5067073;28;20566;-72
2024/04/07 10:41:30;;;;;;;2.03;1.10;;;23.10;90.20;;;;;;5063827;28;20529;-73
2024/04/07 10:43:58;;;;;;;1.67;1.37;;;23.10;90.00;;;;;;5066135;28;21022;-73
2024/04/07 10:46:25;;;;;;;2.60;1.10;;;23.40;90.10;;;;;;5063828;28;21217;-72
2024/04/07 10:48:53;;;;;;;1.63;1.53;;;23.30;90.10;;;;;;5066936;28;21125;-72
2024/04/07 10:51:20;;;;;;;1.40;1.17;;;23.30;90.10;;;;;;5063596;28;21010;-71
2024/04/07 10:53:47;;;;;;;1.30;1.13;;;23.30;90.00;;;;;;5065060;28;20721;-72
2024/04/07 10:56:14;;;;;;;1.77;1.30;;;23.10;89.80;;;;;;5064170;28;20452;-72
2024/04/07 10:58:39;;;;;;;1.87;1.27;;;23.10;89.80;;;;;;5065422;28;21200;-72
2024/04/07 11:01:06;;;;;;;1.30;1.20;;;23.40;90.00;;;;;;5065128;28;20531;-72
2024/04/07 11:03:33;;;;;;;1.27;1.03;;;23.30;90.00;;;;;;5066178;28;20197;-73
2024/04/07 11:06:02;;;;;;;1.50;1.40;;;23.20;89.50;;;;;;5062326;28;20451;-72
2024/04/07 11:08:28;;;;;;;1.70;1.30;;;23.40;89.90;;;;;;5065927;28;20498;-72
2024/04/07 11:10:55;;;;;;;1.83;1.10;;;23.20;89.70;;;;;;5065803;28;20446;-72
2024/04/07 11:13:22;;;;;;;2.13;1.37;;;23.20;89.70;;;;;;5065801;28;20288;-72
2024/04/07 11:15:51;;;;;;;1.80;1.37;;;23.30;89.40;;;;;;5064728;28;20451;-72
2024/04/07 11:18:18;;;;;;;1.47;1.10;;;23.40;89.30;;;;;;5065304;28;20457;-72
2024/04/07 11:20:45;;;;;;;1.70;1.33;;;23.20;88.80;;;;;;5061793;28;20478;-73
2024/04/07 11:23:13;;;;;;;1.03;0.90;;;23.30;88.90;;;;;;5065709;28;20459;-72
2024/04/07 11:25:43;;;;;;;1.70;1.27;;;23.40;88.90;;;;;;5065222;28;20451;-73
2024/04/07 11:28:09;;;;;;;2.07;1.20;;;23.40;88.50;;;;;;5061592;28;21417;-72
2024/04/07 11:30:37;;;;;;;1.50;1.03;;;23.30;88.50;;;;;;5064739;28;20475;-72
2024/04/07 11:33:04;;;;;;;1.60;0.97;;;23.40;88.50;;;;;;5065250;28;21177;-72
2024/04/07 11:35:31;;;;;;;1.53;1.00;;;23.40;88.50;;;;;;5065057;28;20461;-72
2024/04/07 11:37:56;;;;;;;3.37;1.10;;;23.40;88.50;;;;;;5063974;28;20452;-71
2024/04/07 11:40:24;;;;;;;2.20;1.00;;;23.40;88.50;;;;;;5064225;28;20527;-72
2024/04/07 11:42:50;;;;;;;1.40;0.90;;;23.40;88.60;;;;;;5064527;28;20224;-72
2024/04/07 11:45:17;;;;;;;1.50;1.10;;;23.60;88.70;;;;;;5064175;28;20456;-72
2024/04/07 11:47:43;;;;;;;1.20;0.90;;;23.20;88.30;;;;;;5064243;28;20197;-72
2024/04/07 11:50:10;;;;;;;1.63;1.17;;;23.40;88.40;;;;;;5064387;28;20451;-71
2024/04/07 11:52:36;;;;;;;1.40;1.10;;;23.40;88.30;;;;;;5063210;28;20530;-72
2024/04/07 11:55:03;;;;;;;1.93;1.53;;;23.60;88.50;;;;;;5063951;28;20452;-72
2024/04/07 11:57:30;;;;;;;1.03;0.93;;;23.30;88.10;;;;;;5065563;28;20475;-72
2024/04/07 11:59:57;;;;;;;1.10;0.80;;;23.50;88.50;;;;;;5064193;28;21100;-72
2024/04/07 12:02:23;;;;;;;1.90;1.17;;;23.60;88.90;;;;;;5064345;28;20490;-73
2024/04/07 12:04:50;;;;;;;1.50;1.00;;;23.50;88.40;;;;;;5065336;28;21413;-73
2024/04/07 12:07:16;;;;;;;1.40;1.03;;;23.40;88.30;;;;;;5063609;28;20201;-74
2024/04/07 12:09:43;;;;;;;1.40;0.93;;;23.40;87.90;;;;;;5065818;28;20464;-73
2024/04/07 12:12:09;;;;;;;1.90;1.10;;;23.50;88.00;;;;;;5065227;28;20312;-73
2024/04/07 12:14:38;;;;;;;2.30;1.03;;;23.50;88.10;;;;;;5066217;28;20966;-73
2024/04/07 12:17:04;;;;;;;1.93;1.13;;;23.40;87.60;;;;;;5067398;28;20464;-73
2024/04/07 12:19:31;;;;;;;1.40;1.00;;;23.40;87.80;;;;;;5063089;28;20813;-73
2024/04/07 12:21:57;;;;;;;1.57;1.17;;;23.40;87.70;;;;;;5058777;28;20960;-73
2024/04/07 12:24:24;;;;;;;1.33;1.00;;;23.50;87.70;;;;;;5061562;28;20451;-73
2024/04/07 12:26:51;;;;;;;1.90;1.10;;;23.40;87.60;;;;;;5059854;28;20221;-72
2024/04/07 12:29:18;;;;;;;1.23;1.00;;;23.50;87.50;;;;;;5063211;28;20567;-72
2024/04/07 12:31:45;;;;;;;1.50;1.00;;;23.40;87.40;;;;;;5062383;28;20461;-72
2024/04/07 12:34:12;;;;;;;1.47;1.00;;;23.40;87.20;;;;;;5061632;28;20483;-72
2024/04/07 12:36:39;;;;;;;1.20;0.90;;;23.50;87.50;;;;;;5061984;28;20957;-72
2024/04/07 12:39:08;;;;;;;1.20;0.83;;;23.40;87.20;;;;;;5065446;28;20444;-72
2024/04/07 12:41:34;;;;;;;1.10;1.00;;;23.40;87.30;;;;;;5066378;28;21408;-72
2024/04/07 12:44:01;;;;;;;2.10;1.30;;;23.40;86.90;;;;;;5065159;28;20451;-72
2024/04/07 12:46:27;;;;;;;2.80;1.10;;;23.40;87.20;;;;;;5064798;28;20452;-72
2024/04/07 12:48:55;;;;;;;4.07;1.10;;;23.40;87.30;;;;;;5061603;28;21058;-72